Time;durP1;ratioP1;P1;durP2;ratioP2;P2;SDS_P1;SDS_P2;PMS_P1;PMS_P2;Temp;Humidity;BMP_temperature;BMP_pressure;BME280_temperature;BME280_humidity;BME280_pressure;Samples;Min_cycle;Max_cycle;Signal;HPM_P1;HPM_P2
2021/12/11 00:02:29;;;;;;;33.83;21.48;;;;;;;1.04;82.53;99663.48;3517360;78;21019;-76
2021/12/11 00:07:21;;;;;;;35.73;20.50;;;;;;;1.05;82.66;99672.88;3567590;78;20977;-76
2021/12/11 00:12:31;;;;;;;32.67;20.37;;;;;;;1.01;82.54;99672.73;3539486;78;20932;-76
2021/12/11 00:17:30;;;;;;;35.50;20.48;;;;;;;1.04;82.63;99676.28;3579361;78;20975;-76
2021/12/11 00:22:28;;;;;;;37.67;21.52;;;;;;;1.03;82.79;99675.80;3527507;78;20959;-75
2021/12/11 00:27:25;;;;;;;35.95;21.23;;;;;;;0.98;82.50;99686.26;3513366;78;21000;-76
2021/12/11 00:32:28;;;;;;;38.30;21.65;;;;;;;0.97;82.84;99683.64;3531135;79;24127;-76
2021/12/11 00:37:23;;;;;;;42.98;23.10;;;;;;;0.95;82.70;99678.48;3499430;79;20940;-76
2021/12/11 00:42:20;;;;;;;38.13;21.68;;;;;;;0.95;82.67;99684.88;3526453;78;20981;-76
2021/12/11 00:47:20;;;;;;;36.80;21.50;;;;;;;0.96;82.64;99694.29;3546244;79;21454;-76
2021/12/11 00:52:12;;;;;;;39.53;21.87;;;;;;;0.94;82.70;99713.42;3530711;79;21360;-76
2021/12/11 00:57:05;;;;;;;36.20;20.32;;;;;;;0.90;82.40;99700.47;3559783;79;21226;-75
2021/12/11 01:01:59;;;;;;;35.48;21.55;;;;;;;0.90;82.68;99709.00;3556308;79;20972;-75
2021/12/11 01:07:03;;;;;;;36.38;21.20;;;;;;;0.92;82.64;99698.83;3543668;79;20995;-76
2021/12/11 01:12:04;;;;;;;38.48;22.15;;;;;;;0.91;82.62;99717.55;3534722;79;21301;-76
2021/12/11 01:17:02;;;;;;;36.88;20.82;;;;;;;0.86;82.54;99726.34;3550227;79;21791;-76
2021/12/11 01:21:58;;;;;;;36.68;20.02;;;;;;;0.79;82.67;99729.85;3547046;79;20935;-76
2021/12/11 01:26:51;;;;;;;31.68;19.42;;;;;;;0.77;82.79;99733.66;3501316;79;20972;-76
2021/12/11 01:31:43;;;;;;;33.95;19.30;;;;;;;0.75;82.75;99731.41;3565236;79;20928;-76
2021/12/11 01:36:38;;;;;;;33.63;19.27;;;;;;;0.66;82.79;99730.66;3468599;79;20929;-76
2021/12/11 01:41:31;;;;;;;38.10;20.95;;;;;;;0.63;82.83;99734.36;3535301;79;21603;-76
2021/12/11 01:46:26;;;;;;;58.33;21.70;;;;;;;0.62;82.99;99739.00;3531925;79;21476;-75
2021/12/11 01:51:24;;;;;;;41.98;21.73;;;;;;;0.62;83.08;99745.39;3514042;79;20951;-77
2021/12/11 01:56:20;;;;;;;40.75;21.80;;;;;;;0.61;83.04;99744.05;3528972;79;20901;-76
2021/12/11 02:01:19;;;;;;;37.17;22.27;;;;;;;0.58;82.78;99751.62;3588877;79;22072;-77
2021/12/11 02:06:11;;;;;;;34.25;19.62;;;;;;;0.53;82.99;99758.67;3519766;79;20983;-76
2021/12/11 02:11:09;;;;;;;33.50;18.73;;;;;;;0.51;83.01;99755.19;3545022;79;20956;-76
2021/12/11 02:16:04;;;;;;;33.35;20.00;;;;;;;0.54;82.99;99762.13;3533388;79;21058;-77
2021/12/11 02:21:08;;;;;;;36.80;20.45;;;;;;;0.58;83.00;99776.78;3522588;79;20895;-76
2021/12/11 02:26:12;;;;;;;36.75;19.65;;;;;;;0.63;83.12;99780.42;3551740;79;21413;-75
2021/12/11 02:31:31;;;;;;;34.73;19.30;;;;;;;0.69;83.12;99776.81;3541223;79;20928;-77
2021/12/11 02:36:28;;;;;;;31.15;19.02;;;;;;;0.75;83.10;99787.33;3521045;79;20956;-76
2021/12/11 02:41:42;;;;;;;;;;;;;;;0.79;83.04;99792.16;3511950;79;20924;-75
2021/12/11 02:46:42;;;;;;;32.23;18.27;;;;;;;0.79;82.90;99797.66;3553062;79;20419;-75
2021/12/11 02:51:40;;;;;;;30.17;19.27;;;;;;;0.75;82.73;99811.63;3550246;79;21660;-76
2021/12/11 02:56:38;;;;;;;33.88;18.40;;;;;;;0.76;82.74;99822.31;3564358;79;20987;-76
2021/12/11 03:01:38;;;;;;;34.50;18.95;;;;;;;0.78;82.72;99829.20;3530146;79;21137;-76
2021/12/11 03:06:39;;;;;;;33.08;18.87;;;;;;;0.79;82.82;99839.89;3504830;79;20987;-76
2021/12/11 03:11:30;;;;;;;32.55;17.90;;;;;;;0.72;82.60;99854.13;3476976;79;20979;-76
2021/12/11 03:16:35;;;;;;;41.83;21.33;;;;;;;0.74;82.69;99844.41;3758514;75;22588;-74
2021/12/11 03:21:27;;;;;;;32.13;18.87;;;;;;;0.65;82.62;99845.31;3675446;76;21989;-73
2021/12/11 03:26:18;;;;;;;36.08;19.70;;;;;;;0.57;82.55;99860.72;3650232;75;20978;-75
2021/12/11 03:31:11;;;;;;;41.23;23.18;;;;;;;0.53;82.58;99866.52;3650227;75;20946;-74
2021/12/11 03:36:06;;;;;;;39.90;21.55;;;;;;;0.51;82.63;99868.14;3634571;75;20919;-74
2021/12/11 03:40:58;;;;;;;38.90;19.40;;;;;;;0.50;82.74;99869.84;3634978;75;20971;-73
2021/12/11 03:45:53;;;;;;;36.50;20.15;;;;;;;0.50;82.62;99858.70;3705069;75;21971;-74
2021/12/11 03:50:46;;;;;;;43.28;24.40;;;;;;;0.51;82.77;99854.08;3700600;75;21216;-73
2021/12/11 03:55:46;;;;;;;35.35;19.70;;;;;;;0.50;82.79;99857.42;3658753;75;20891;-74
2021/12/11 04:00:51;;;;;;;43.87;23.52;;;;;;;0.47;82.85;99857.31;3624181;76;20923;-73
2021/12/11 04:05:45;;;;;;;48.13;23.65;;;;;;;0.48;82.94;99846.26;3710296;75;20947;-73
2021/12/11 04:10:37;;;;;;;45.78;24.20;;;;;;;0.43;82.94;99846.08;3686639;76;21436;-74
2021/12/11 04:15:28;;;;;;;46.53;23.57;;;;;;;0.41;83.02;99849.36;3708618;76;20942;-74
2021/12/11 04:20:25;;;;;;;54.05;26.30;;;;;;;0.41;83.10;99859.59;3653594;75;20942;-74
2021/12/11 04:25:20;;;;;;;52.40;25.15;;;;;;;0.43;83.08;99868.20;3624076;75;21044;-73
2021/12/11 04:30:16;;;;;;;60.30;26.73;;;;;;;0.44;83.03;99873.80;3644992;77;21428;-74
2021/12/11 04:35:12;;;;;;;56.25;26.10;;;;;;;0.48;83.03;99875.67;3653382;75;21009;-73
2021/12/11 04:40:11;;;;;;;52.17;27.50;;;;;;;0.50;83.08;99885.56;3681984;74;21522;-74
2021/12/11 04:45:11;;;;;;;60.52;28.00;;;;;;;0.53;83.10;99878.89;3672158;75;20876;-74
2021/12/11 04:50:13;;;;;;;63.42;30.30;;;;;;;0.56;83.06;99898.64;3679182;75;20923;-74
2021/12/11 05:00:26;;;;;;;69.35;32.03;;;;;;;0.56;82.97;99911.43;3715543;75;21275;-74
2021/12/11 05:05:25;;;;;;;74.80;33.98;;;;;;;0.55;82.90;99907.11;3619236;75;20993;-73
2021/12/11 05:10:22;;;;;;;60.33;28.87;;;;;;;0.52;82.86;99906.97;3657630;74;20978;-74
2021/12/11 05:15:15;;;;;;;62.85;29.92;;;;;;;0.50;82.90;99913.70;3680592;76;20933;-74
2021/12/11 05:20:11;;;;;;;58.08;28.87;;;;;;;0.48;82.90;99909.79;3630283;76;20944;-74
2021/12/11 05:25:04;;;;;;;53.15;27.42;;;;;;;0.47;82.99;99917.42;3641158;76;22139;-74
2021/12/11 05:29:55;;;;;;;48.13;25.77;;;;;;;0.47;82.99;99927.24;3610647;76;21561;-74
2021/12/11 05:34:47;;;;;;;50.30;26.30;;;;;;;0.46;83.05;99929.73;3624467;76;20999;-74
2021/12/11 05:39:39;;;;;;;52.20;25.17;;;;;;;0.45;83.12;99939.47;3642393;76;20897;-75
2021/12/11 05:44:32;;;;;;;53.02;25.60;;;;;;;0.47;83.20;99937.89;3613594;76;20921;-74
2021/12/11 05:49:27;;;;;;;53.05;27.20;;;;;;;0.47;83.14;99944.28;3660183;76;21163;-73
2021/12/11 05:54:23;;;;;;;45.50;23.47;;;;;;;0.48;83.18;99953.69;3576185;76;20973;-74
2021/12/11 05:59:18;;;;;;;47.65;25.95;;;;;;;0.46;83.20;99965.12;3681394;76;21442;-74
2021/12/11 06:04:17;;;;;;;51.37;26.55;;;;;;;0.48;83.29;99967.75;3640567;76;20988;-75
2021/12/11 06:09:13;;;;;;;47.93;24.57;;;;;;;0.48;83.31;99969.89;3686942;76;20992;-74
2021/12/11 06:14:05;;;;;;;52.75;25.15;;;;;;;0.48;83.40;99975.02;3667075;75;22972;-74
2021/12/11 06:19:02;;;;;;;51.77;26.97;;;;;;;0.52;83.48;99982.42;3664070;76;21441;-74
2021/12/11 06:23:49;;;;;;;51.02;29.20;;;;;;;0.53;83.43;99984.19;3605671;77;20942;-74
2021/12/11 06:28:41;;;;;;;53.35;28.32;;;;;;;0.55;83.58;99994.98;3629743;78;21475;-73
2021/12/11 06:33:34;;;;;;;52.60;27.80;;;;;;;0.59;83.58;100002.77;3577071;77;20984;-74
2021/12/11 06:38:30;;;;;;;50.70;27.58;;;;;;;0.57;83.46;100006.53;3587630;77;21919;-74
2021/12/11 06:43:22;;;;;;;44.93;25.30;;;;;;;0.59;83.56;100013.91;3656032;77;20985;-74
2021/12/11 06:48:15;;;;;;;49.18;27.87;;;;;;;0.59;83.44;100016.46;3560219;77;20949;-74
2021/12/11 06:53:15;;;;;;;52.40;27.70;;;;;;;0.60;83.50;100006.69;3600176;76;21385;-74
2021/12/11 06:58:07;;;;;;;54.70;28.38;;;;;;;0.60;83.44;100005.41;3670270;76;22229;-75
2021/12/11 07:02:58;;;;;;;58.23;29.07;;;;;;;0.62;83.48;100011.46;3634674;77;21967;-74
2021/12/11 07:07:49;;;;;;;51.83;27.00;;;;;;;0.65;83.43;100021.84;3568050;78;20966;-74
2021/12/11 07:12:44;;;;;;;55.33;28.40;;;;;;;0.66;83.43;100028.73;3643968;78;21032;-74
2021/12/11 07:17:36;;;;;;;47.13;25.75;;;;;;;0.69;83.46;100042.91;3624067;74;20966;-74
2021/12/11 07:22:27;;;;;;;47.48;25.85;;;;;;;0.75;83.45;100044.49;3589128;77;20950;-74
2021/12/11 07:27:18;;;;;;;51.33;26.77;;;;;;;0.78;83.50;100049.27;3604413;78;20951;-74
2021/12/11 07:32:11;;;;;;;47.93;25.32;;;;;;;0.78;83.48;100058.23;3646948;76;20958;-74
2021/12/11 07:37:04;;;;;;;49.55;26.97;;;;;;;0.78;83.52;100059.09;3652790;77;21004;-77
2021/12/11 07:41:56;;;;;;;50.10;27.67;;;;;;;0.83;83.48;100059.32;3620109;78;21535;-76
2021/12/11 07:46:48;;;;;;;48.60;27.85;;;;;;;0.91;83.45;100061.80;3631343;77;21502;-76
2021/12/11 07:51:40;;;;;;;54.98;28.50;;;;;;;0.97;83.36;100072.34;3652291;78;21987;-77
2021/12/11 07:56:31;;;;;;;47.17;24.80;;;;;;;1.01;83.30;100067.81;3602021;78;20950;-76
2021/12/11 08:01:26;;;;;;;57.65;27.42;;;;;;;1.07;83.27;100077.07;3577712;78;20970;-77
2021/12/11 08:06:18;;;;;;;63.60;31.25;;;;;;;1.07;83.27;100087.31;3594870;78;21385;-76
2021/12/11 08:11:13;;;;;;;61.18;31.35;;;;;;;1.13;83.24;100099.09;3600391;78;20989;-77
2021/12/11 08:16:05;;;;;;;56.30;28.07;;;;;;;1.17;83.25;100113.33;3649335;77;21042;-77
2021/12/11 08:20:57;;;;;;;63.75;30.60;;;;;;;1.19;83.24;100114.27;3542759;77;20938;-77
2021/12/11 08:25:51;;;;;;;59.85;31.48;;;;;;;1.25;83.31;100115.80;3639478;77;20967;-76
2021/12/11 08:30:46;;;;;;;58.10;27.67;;;;;;;1.28;83.26;100126.20;3571432;77;20992;-76
2021/12/11 08:35:38;;;;;;;58.52;29.32;;;;;;;1.31;83.17;100131.05;3594798;77;21431;-76
2021/12/11 08:40:34;;;;;;;63.15;29.98;;;;;;;1.36;83.15;100144.08;3537689;77;22697;-76
2021/12/11 08:45:43;;;;;;;60.20;30.23;;;;;;;1.38;83.11;100139.89;3563354;77;21592;-76
2021/12/11 08:50:24;;;;;;;66.30;31.00;;;;;;;1.47;83.08;100153.52;3611272;77;20945;-75
2021/12/11 08:55:24;;;;;;;62.20;31.42;;;;;;;1.53;83.01;100166.59;3648951;77;21202;-75
2021/12/11 09:00:32;;;;;;;65.87;33.18;;;;;;;1.60;83.06;100170.31;3592853;77;21442;-75
2021/12/11 09:05:29;;;;;;;68.57;33.18;;;;;;;1.64;82.99;100169.63;3543695;78;21129;-75
2021/12/11 09:10:59;;;;;;;55.60;27.13;;;;;;;1.62;82.88;100178.94;3538287;78;21566;-75
2021/12/11 09:16:07;;;;;;;69.87;33.40;;;;;;;1.63;82.88;100181.57;3481614;78;20982;-75
2021/12/11 09:21:09;;;;;;;69.20;32.65;;;;;;;1.64;83.08;100192.28;3550184;78;21291;-75
2021/12/11 09:26:13;;;;;;;67.85;34.48;;;;;;;1.71;83.20;100200.71;3515700;79;20971;-76
2021/12/11 09:31:22;;;;;;;66.22;32.00;;;;;;;1.75;83.17;100200.44;3550794;78;21259;-75
2021/12/11 09:36:24;;;;;;;62.05;31.15;;;;;;;1.78;83.12;100213.41;3565661;78;20954;-75
2021/12/11 09:41:21;;;;;;;66.37;32.42;;;;;;;1.83;83.13;100213.20;3579803;75;21377;-75
2021/12/11 09:46:17;;;;;;;70.27;34.60;;;;;;;1.87;83.12;100217.64;3655784;76;20911;-75
2021/12/11 09:51:13;;;;;;;72.87;34.98;;;;;;;1.87;83.00;100237.28;3690382;76;20937;-75
2021/12/11 09:56:10;;;;;;;72.27;35.80;;;;;;;1.89;83.12;100239.09;3630902;76;21009;-74
2021/12/11 10:01:15;;;;;;;76.07;37.40;;;;;;;1.93;83.06;100245.23;3700389;75;21045;-74
2021/12/11 10:06:15;;;;;;;78.10;38.80;;;;;;;1.96;83.05;100253.48;3617089;76;21511;-75
2021/12/11 10:11:23;;;;;;;74.32;37.00;;;;;;;1.97;83.03;100253.94;3689128;76;20974;-75
2021/12/11 10:16:17;;;;;;;73.62;37.75;;;;;;;2.00;83.03;100256.64;3679016;75;21045;-74
2021/12/11 10:21:17;;;;;;;71.20;35.58;;;;;;;2.03;82.92;100260.63;3650268;76;21877;-75
2021/12/11 10:26:13;;;;;;;82.90;37.73;;;;;;;2.08;82.89;100264.28;3652891;77;20993;-74
2021/12/11 10:31:16;;;;;;;70.67;35.33;;;;;;;2.08;82.85;100280.95;3651546;77;20982;-73
2021/12/11 10:36:13;;;;;;;69.03;34.38;;;;;;;2.12;82.78;100272.58;3590732;77;20910;-74
2021/12/11 10:41:08;;;;;;;75.80;36.00;;;;;;;2.14;82.91;100277.78;3642932;77;20939;-74
2021/12/11 10:46:03;;;;;;;69.22;33.30;;;;;;;2.12;82.90;100280.27;3612186;78;22830;-74
2021/12/11 10:51:00;;;;;;;62.27;32.23;;;;;;;2.13;82.88;100284.60;3607495;76;20977;-74
2021/12/11 10:55:53;;;;;;;73.57;36.23;;;;;;;2.09;82.64;100297.70;3646368;78;21542;-74
2021/12/11 11:00:56;;;;;;;78.85;37.50;;;;;;;2.06;82.86;100295.40;3575166;77;20945;-74
2021/12/11 11:05:48;;;;;;;81.60;41.23;;;;;;;2.05;82.93;100303.89;3618822;74;20962;-74
2021/12/11 11:10:45;;;;;;;86.17;41.28;;;;;;;2.05;82.88;100309.02;3574543;77;20981;-75
2021/12/11 11:15:39;;;;;;;73.97;40.40;;;;;;;2.00;82.81;100311.36;3598727;78;20984;-74
2021/12/11 11:20:41;;;;;;;78.97;38.23;;;;;;;2.01;82.88;100314.83;3600544;76;20980;-74
2021/12/11 11:25:39;;;;;;;74.60;36.45;;;;;;;2.04;82.83;100316.22;3647370;76;20914;-75
2021/12/11 11:30:38;;;;;;;86.70;41.15;;;;;;;2.02;82.82;100328.10;3631326;76;20949;-74
2021/12/11 11:35:33;;;;;;;88.55;42.03;;;;;;;2.02;82.89;100331.95;3636590;76;21073;-74
2021/12/11 11:40:30;;;;;;;92.70;42.03;;;;;;;2.02;82.83;100330.29;3628176;76;20937;-75
2021/12/11 11:45:22;;;;;;;82.03;39.20;;;;;;;2.06;82.96;100341.56;3623777;76;20968;-74
2021/12/11 11:50:18;;;;;;;83.40;39.98;;;;;;;2.07;83.13;100352.28;3677056;76;20952;-75
2021/12/11 11:55:14;;;;;;;82.80;39.35;;;;;;;2.07;83.12;100364.69;3640298;76;21596;-74
2021/12/11 12:00:32;;;;;;;90.63;41.67;;;;;;;2.10;83.12;100367.81;3660767;76;21986;-74
2021/12/11 12:05:29;;;;;;;84.77;39.90;;;;;;;2.12;83.20;100374.30;3676355;76;20979;-74
2021/12/11 12:10:25;;;;;;;90.10;41.43;;;;;;;2.07;82.97;100380.48;3579870;76;20952;-74
2021/12/11 12:15:22;;;;;;;92.02;46.10;;;;;;;2.04;83.15;100384.18;3662105;76;20907;-74
2021/12/11 12:20:17;;;;;;;85.10;39.70;;;;;;;2.02;82.97;100398.62;3717388;75;20931;-74
2021/12/11 12:25:10;;;;;;;99.52;46.75;;;;;;;2.00;83.17;100390.86;3723272;75;21558;-74
2021/12/11 12:30:06;;;;;;;82.65;40.58;;;;;;;2.02;83.21;100393.50;3658155;75;20946;-74
2021/12/11 12:35:02;;;;;;;89.07;41.20;;;;;;;2.02;83.19;100402.47;3693234;75;21456;-73
2021/12/11 12:39:58;;;;;;;83.20;40.10;;;;;;;2.04;83.23;100403.41;3633454;75;20940;-73
2021/12/11 12:45:00;;;;;;;77.62;36.70;;;;;;;1.98;83.05;100405.71;3626551;75;20936;-73
2021/12/11 12:49:55;;;;;;;80.38;41.37;;;;;;;2.00;83.42;100412.66;3687775;75;21177;-73
2021/12/11 12:54:48;;;;;;;77.47;39.53;;;;;;;2.04;83.54;100421.37;3669219;75;20894;-73
2021/12/11 12:59:44;;;;;;;77.47;38.05;;;;;;;2.04;83.50;100425.22;3627413;76;20947;-74
2021/12/11 13:04:41;;;;;;;84.63;40.63;;;;;;;2.07;83.50;100418.55;3717509;75;20993;-74
2021/12/11 13:09:41;;;;;;;67.83;35.13;;;;;;;2.04;83.25;100428.68;3670101;77;20927;-74
2021/12/11 13:14:35;;;;;;;75.83;38.50;;;;;;;1.96;83.25;100426.56;3678350;75;21083;-74
2021/12/11 13:19:32;;;;;;;79.00;38.70;;;;;;;1.93;83.57;100436.25;3643852;75;20958;-73
2021/12/11 13:24:24;;;;;;;82.67;41.20;;;;;;;1.95;83.64;100447.87;3683242;76;20990;-73
2021/12/11 13:29:19;;;;;;;81.65;40.20;;;;;;;1.95;83.71;100458.13;3629220;76;20915;-74
2021/12/11 13:34:10;;;;;;;75.03;38.30;;;;;;;1.90;83.54;100467.77;3661632;75;21543;-73
2021/12/11 13:39:09;;;;;;;77.40;37.65;;;;;;;1.89;83.68;100471.13;3640313;75;21157;-73
2021/12/11 13:44:01;;;;;;;68.78;38.28;;;;;;;1.87;83.71;100474.02;3651193;75;20935;-74
2021/12/11 13:48:52;;;;;;;76.85;37.60;;;;;;;1.86;83.79;100476.51;3622295;76;20919;-73
2021/12/11 13:53:45;;;;;;;85.07;38.78;;;;;;;1.82;83.80;100483.58;3629446;75;20923;-74
2021/12/11 13:58:37;;;;;;;79.95;37.60;;;;;;;1.80;83.68;100487.34;3614838;75;20950;-75
2021/12/11 14:03:30;;;;;;;83.78;39.27;;;;;;;1.75;83.82;100495.22;3570545;75;22477;-74
2021/12/11 14:08:21;;;;;;;83.10;40.83;;;;;;;1.70;83.87;100494.14;3570598;75;20997;-74
2021/12/11 14:13:14;;;;;;;83.03;41.13;;;;;;;1.68;83.92;100491.88;3669508;75;20896;-73
2021/12/11 14:18:08;;;;;;;78.17;37.80;;;;;;;1.64;83.81;100500.23;3633610;76;21386;-73
2021/12/11 14:23:04;;;;;;;78.40;40.10;;;;;;;1.61;83.87;100498.78;3673418;76;20911;-73
2021/12/11 14:27:55;;;;;;;78.02;38.33;;;;;;;1.56;83.90;100499.86;3604026;76;21482;-73
2021/12/11 14:32:52;;;;;;;75.90;36.35;;;;;;;1.55;83.83;100513.88;3608668;76;21013;-73
2021/12/11 14:37:42;;;;;;;89.52;40.35;;;;;;;1.47;83.75;100513.09;3613239;76;20929;-73
2021/12/11 14:42:33;;;;;;;91.78;41.98;;;;;;;1.42;83.88;100518.37;3612390;77;20919;-73
2021/12/11 14:47:26;;;;;;;86.40;39.95;;;;;;;1.39;83.98;100518.63;3561367;76;21001;-73
2021/12/11 14:52:22;;;;;;;72.75;34.48;;;;;;;1.34;83.94;100508.13;3666172;76;21019;-74
2021/12/11 14:57:16;;;;;;;75.80;36.60;;;;;;;1.26;83.74;100517.12;3615705;76;20977;-73
2021/12/11 15:02:15;;;;;;;111.00;49.90;;;;;;;1.18;83.81;100517.12;3603531;76;21045;-73
2021/12/11 15:07:10;;;;;;;104.67;48.95;;;;;;;1.07;83.95;100516.19;3698142;76;20955;-73
2021/12/11 15:12:04;;;;;;;116.35;52.55;;;;;;;1.03;84.03;100519.37;3639279;76;20942;-73
2021/12/11 15:17:03;;;;;;;95.72;46.40;;;;;;;1.01;84.19;100531.21;3612125;76;21001;-73
2021/12/11 15:21:55;;;;;;;96.87;45.75;;;;;;;0.99;84.01;100543.47;3687841;75;20918;-73
2021/12/11 15:26:48;;;;;;;106.50;49.13;;;;;;;0.96;84.01;100544.17;3633999;75;21503;-73
2021/12/11 15:31:47;;;;;;;110.45;47.15;;;;;;;0.98;84.13;100563.45;3625122;75;21443;-74
2021/12/11 15:36:41;;;;;;;107.35;45.40;;;;;;;0.99;84.21;100573.78;3634446;75;21451;-74
2021/12/11 15:41:33;;;;;;;106.58;46.60;;;;;;;1.03;84.26;100601.30;3600527;75;21537;-75
2021/12/11 15:46:26;;;;;;;111.62;49.35;;;;;;;1.06;84.26;100614.28;3613706;75;20955;-75
2021/12/11 15:51:22;;;;;;;94.40;46.55;;;;;;;1.06;84.30;100618.12;3675143;75;22044;-75
2021/12/11 15:56:15;;;;;;;99.52;47.30;;;;;;;1.08;84.45;100622.05;3700443;75;21456;-75
2021/12/11 16:01:12;;;;;;;94.07;42.98;;;;;;;1.12;84.52;100635.08;3593373;76;21002;-74
2021/12/11 16:06:06;;;;;;;94.83;44.95;;;;;;;1.13;84.32;100644.53;3678391;75;20903;-74
2021/12/11 16:10:57;;;;;;;97.92;43.20;;;;;;;1.09;84.14;100655.80;3647126;75;20919;-74
2021/12/11 16:15:51;;;;;;;112.55;46.83;;;;;;;1.07;84.34;100654.47;3637352;76;20966;-74
2021/12/11 16:20:52;;;;;;;99.13;44.85;;;;;;;1.08;84.43;100665.17;3601120;76;20929;-74
2021/12/11 16:25:43;;;;;;;111.62;49.98;;;;;;;1.09;84.37;100669.50;3632515;76;21462;-74
2021/12/11 16:30:40;;;;;;;104.53;46.42;;;;;;;1.10;84.39;100669.09;3576489;76;21057;-73
2021/12/11 16:35:33;;;;;;;103.77;44.90;;;;;;;1.12;84.38;100678.61;3567986;76;21401;-74
2021/12/11 16:40:29;;;;;;;101.27;46.05;;;;;;;1.12;84.54;100678.61;3610803;76;20978;-73
2021/12/11 16:45:20;;;;;;;111.42;46.83;;;;;;;1.17;84.63;100685.69;3609315;76;21400;-73
2021/12/11 16:50:14;;;;;;;102.50;47.45;;;;;;;1.19;84.64;100690.48;3578161;76;20931;-74
2021/12/11 16:55:08;;;;;;;109.92;47.88;;;;;;;1.22;84.66;100690.25;3561428;77;21582;-74
2021/12/11 16:59:59;;;;;;;111.62;45.48;;;;;;;1.20;84.46;100700.81;3587843;77;20923;-73
2021/12/11 17:04:52;;;;;;;97.42;44.83;;;;;;;1.20;84.56;100698.63;3571506;76;21439;-73
2021/12/11 17:09:47;;;;;;;93.78;43.20;;;;;;;1.20;84.54;100689.67;3581905;76;21491;-73
2021/12/11 17:14:39;;;;;;;102.53;45.65;;;;;;;1.19;84.50;100694.33;3567718;78;21029;-73
2021/12/11 17:19:30;;;;;;;99.45;44.63;;;;;;;1.17;84.58;100701.92;3598650;75;22058;-73
2021/12/11 17:24:26;;;;;;;107.03;45.55;;;;;;;1.17;84.64;100708.73;3656258;75;21491;-73
2021/12/11 17:29:22;;;;;;;118.77;51.23;;;;;;;1.16;84.59;100724.88;3649292;75;20997;-73
2021/12/11 17:34:15;;;;;;;109.87;47.90;;;;;;;1.20;84.76;100734.48;3594823;75;20946;-73
2021/12/11 17:39:08;;;;;;;114.37;49.38;;;;;;;1.22;84.79;100741.89;3595828;75;20958;-73
2021/12/11 17:44:01;;;;;;;112.32;48.48;;;;;;;1.20;84.52;100739.61;3596319;75;21546;-73
2021/12/11 17:48:53;;;;;;;101.40;45.25;;;;;;;1.16;84.49;100751.37;3627911;75;20951;-73
2021/12/11 17:53:45;;;;;;;103.35;44.93;;;;;;;1.14;84.46;100756.44;3593571;75;20945;-73
2021/12/11 17:58:41;;;;;;;106.37;45.63;;;;;;;1.14;84.54;100759.37;3632113;76;21000;-74
2021/12/11 18:03:33;;;;;;;112.60;47.67;;;;;;;1.10;84.47;100776.24;3573017;76;21412;-74
2021/12/11 18:08:30;;;;;;;114.85;48.90;;;;;;;1.09;84.52;100777.06;3610077;76;21916;-74
2021/12/11 18:13:27;;;;;;;93.07;41.02;;;;;;;1.10;84.58;100777.94;3636702;75;21476;-74
2021/12/11 18:18:30;;;;;;;101.83;47.30;;;;;;;1.09;84.65;100778.34;3664308;77;20926;-74
2021/12/11 18:23:26;;;;;;;113.75;48.83;;;;;;;1.12;84.69;100781.05;3688985;75;20931;-74
2021/12/11 18:28:18;;;;;;;105.70;46.00;;;;;;;1.13;84.70;100780.27;3624707;76;20985;-74
2021/12/11 18:33:10;;;;;;;102.05;43.40;;;;;;;1.13;84.73;100782.83;3695882;75;21176;-73
2021/12/11 18:38:03;;;;;;;97.00;43.80;;;;;;;1.14;84.69;100786.26;3630100;75;21551;-74
2021/12/11 18:42:56;;;;;;;100.10;43.23;;;;;;;1.16;84.78;100790.19;3651135;75;20880;-74
2021/12/11 18:47:48;;;;;;;102.67;44.55;;;;;;;1.19;84.93;100782.69;3651375;76;21001;-74
2021/12/11 18:52:43;;;;;;;109.48;45.73;;;;;;;1.23;84.82;100796.14;3670518;75;21381;-73
2021/12/11 18:57:39;;;;;;;107.10;44.95;;;;;;;1.20;84.76;100809.67;3641788;76;21942;-73
2021/12/11 19:02:38;;;;;;;104.92;43.42;;;;;;;1.18;84.63;100818.05;3670960;75;21017;-73
2021/12/11 19:07:29;;;;;;;100.58;44.95;;;;;;;1.17;84.77;100824.86;3657314;75;20950;-73
2021/12/11 19:12:31;;;;;;;109.00;45.10;;;;;;;1.19;84.74;100822.39;3666130;76;20951;-73
2021/12/11 19:17:23;;;;;;;100.62;44.27;;;;;;;1.18;84.70;100834.32;3657100;75;20974;-73
2021/12/11 19:22:19;;;;;;;101.50;43.78;;;;;;;1.16;84.56;100835.02;3686844;76;21438;-73
2021/12/11 19:27:16;;;;;;;95.35;44.33;;;;;;;1.16;84.62;100849.09;3615278;76;21004;-73
2021/12/11 19:32:09;;;;;;;;;;;;;;;1.12;84.70;100857.87;3677863;76;20952;-74
2021/12/11 19:37:03;;;;;;;97.15;41.18;;;;;;;1.11;84.72;100870.22;3575494;76;20127;-74
2021/12/11 19:41:56;;;;;;;97.42;43.42;;;;;;;1.11;84.75;100875.34;3590037;76;20936;-73
2021/12/11 19:46:50;;;;;;;91.20;40.12;;;;;;;1.14;84.98;100876.80;3599317;76;21119;-73
2021/12/11 19:51:45;;;;;;;97.88;43.58;;;;;;;1.14;84.90;100880.64;3680842;76;20948;-73
2021/12/11 19:56:44;;;;;;;93.27;44.13;;;;;;;1.14;84.85;100884.48;3581298;76;21190;-73
2021/12/11 20:01:40;;;;;;;96.97;44.88;;;;;;;1.13;84.73;100900.63;3618504;76;21525;-73
2021/12/11 20:06:35;;;;;;;98.58;45.33;;;;;;;1.13;84.83;100892.95;3620162;76;20944;-73
2021/12/11 20:11:35;;;;;;;88.33;41.20;;;;;;;1.14;84.84;100902.79;3639988;76;21130;-73
2021/12/11 20:16:31;;;;;;;100.40;44.98;;;;;;;1.11;84.75;100906.07;3623261;76;20987;-74
2021/12/11 20:21:33;;;;;;;123.53;49.77;;;;;;;1.12;84.88;100905.66;3657810;76;20921;-74
2021/12/11 20:26:28;;;;;;;151.80;60.28;;;;;;;1.14;85.04;100903.70;3647115;75;20913;-73
2021/12/11 20:31:28;;;;;;;135.95;58.87;;;;;;;1.12;85.00;100900.13;3671678;75;20952;-74
2021/12/11 20:36:19;;;;;;;153.57;60.28;;;;;;;1.15;85.11;100905.84;3662908;75;21130;-73
2021/12/11 20:41:16;;;;;;;143.20;58.83;;;;;;;1.17;85.11;100913.62;3650968;75;21006;-73
2021/12/11 20:46:10;;;;;;;128.73;57.43;;;;;;;1.16;85.02;100916.97;3615025;75;20980;-73
2021/12/11 20:51:09;;;;;;;125.80;51.92;;;;;;;1.17;85.15;100929.88;3662202;75;21708;-74
2021/12/11 20:56:03;;;;;;;124.80;51.68;;;;;;;1.12;85.00;100932.15;3674462;75;20961;-74
2021/12/11 21:01:09;;;;;;;128.10;53.42;;;;;;;1.10;85.01;100936.30;3638075;75;21959;-73
2021/12/11 21:06:18;;;;;;;116.40;50.95;;;;;;;1.08;85.02;100959.66;3682661;75;20972;-73
2021/12/11 21:11:14;;;;;;;124.58;54.48;;;;;;;1.02;84.90;100963.16;3655301;76;21379;-74
2021/12/11 21:16:32;;;;;;;98.67;41.20;;;;;;;1.02;85.12;100969.93;3671453;75;22018;-74
2021/12/11 21:21:29;;;;;;;111.55;49.30;;;;;;;1.02;85.09;100978.52;3691192;75;20895;-74
2021/12/11 21:26:21;;;;;;;114.70;51.23;;;;;;;1.01;85.12;100988.26;3666620;76;21538;-73
2021/12/11 21:31:18;;;;;;;104.20;50.75;;;;;;;1.00;85.10;100990.31;3665734;76;21029;-74
2021/12/11 21:36:14;;;;;;;107.83;50.07;;;;;;;0.99;85.01;100998.81;3670813;75;20926;-74
2021/12/11 21:41:23;;;;;;;105.30;48.30;;;;;;;0.95;84.83;101004.55;3626794;75;21112;-74
2021/12/11 21:46:19;;;;;;;103.62;47.98;;;;;;;0.90;84.95;101011.06;3656811;76;21001;-74
2021/12/11 21:51:16;;;;;;;92.57;42.93;;;;;;;0.91;85.06;101015.38;3678435;75;21493;-74
2021/12/11 21:56:11;;;;;;;106.25;45.88;;;;;;;0.92;84.97;101022.28;3691829;75;21048;-75
2021/12/11 22:01:10;;;;;;;79.25;41.08;;;;;;;0.90;85.02;101028.98;3607339;74;21423;-74
2021/12/11 22:06:10;;;;;;;87.62;43.15;;;;;;;0.89;84.98;101020.80;3695132;74;20930;-74
2021/12/11 22:11:07;;;;;;;89.13;42.27;;;;;;;0.88;85.04;101022.48;3660231;76;20923;-75
2021/12/11 22:16:09;;;;;;;88.83;44.20;;;;;;;0.88;84.95;101017.37;3652405;77;21205;-75
2021/12/11 22:21:06;;;;;;;86.42;43.08;;;;;;;0.86;84.86;101017.67;3674632;75;20976;-75
2021/12/11 22:26:08;;;;;;;89.65;45.85;;;;;;;0.87;85.03;101019.42;3643053;76;26749;-74
2021/12/11 22:31:08;;;;;;;81.22;40.63;;;;;;;0.88;84.98;101023.77;3676180;76;21416;-74
2021/12/11 22:36:00;;;;;;;77.78;38.38;;;;;;;0.91;84.96;101012.81;3669097;76;22094;-74
2021/12/11 22:41:06;;;;;;;76.97;39.53;;;;;;;0.88;84.81;101020.33;3615809;76;21441;-74
2021/12/11 22:45:57;;;;;;;79.27;40.80;;;;;;;0.87;84.78;101028.79;3650242;76;20942;-74
2021/12/11 22:51:04;;;;;;;76.90;38.08;;;;;;;0.87;84.88;101036.47;3572669;76;21490;-74